Mckinley Sea — WDE5024 — position and weather

sailwx.info

Track history (hours):
 
Tides and Currents Weather Stations Pressure Air Temp Water Temp Dewpoint Dewpoint Depression Visibility Wind Speed Wind Dir Waves Ship Positions

Mckinley Sea

Owner: Kirby Offshore Marine, LLC, Staten Island, NY. More information available from US FCC via Universal Licensing System and Coast Guard Vessel Documentation Center.

Last reported at 2017-Jan-14 13:28 UTC. Time now 2017-Jan-17 19:17 UTC.
Position N 27°02' W 079°59'.

Length 41 m; draft 6 m.

Type: . MMSI: 367360980.

Date/timePositionNaut miles runAvg speedWind from/ knotsBaromVisibWave heightAir tempDewpointWater temp
2017-Jan-14 13:28N 27°02' W 079°59'38 9.1
2017-Jan-14 09:15N 26°24' W 080°00'5 7.6
2017-Jan-14 08:33N 26°18' W 080°01'8 7.8
2017-Jan-14 07:33N 26°11' W 080°02'7 7.5
2017-Jan-14 06:33N 26°03' W 080°03'8 8.4
2017-Jan-14 05:33N 25°55' W 080°03'9 8.9
2017-Jan-14 04:33N 25°46' W 080°03'9 9.3
2017-Jan-14 03:34N 25°37' W 080°02'  
2017-Jan-05 17:30N 29°23' W 094°53'  
Track history (hours):
 
Tides and Currents Weather Stations Pressure Air Temp Water Temp Dewpoint Dewpoint Depression Visibility Wind Speed Wind Dir Waves Ship Positions

Mckinley Sea

Owner: Kirby Offshore Marine, LLC, Staten Island, NY. More information available from US FCC via Universal Licensing System and Coast Guard Vessel Documentation Center.

Last reported at 2017-Jan-14 13:28 UTC. Time now 2017-Jan-17 19:17 UTC.
Position N 27°02' W 079°59'.

Length 41 m; draft 6 m.

Type: . MMSI: 367360980.

Date/timePositionNaut miles runAvg speedWind from/ knotsBaromVisibWave heightAir tempDewpointWater temp
2017-Jan-14 13:28N 27°02' W 079°59'38 9.1
2017-Jan-14 09:15N 26°24' W 080°00'5 7.6
2017-Jan-14 08:33N 26°18' W 080°01'8 7.8
2017-Jan-14 07:33N 26°11' W 080°02'7 7.5
2017-Jan-14 06:33N 26°03' W 080°03'8 8.4
2017-Jan-14 05:33N 25°55' W 080°03'9 8.9
2017-Jan-14 04:33N 25°46' W 080°03'9 9.3
2017-Jan-14 03:34N 25°37' W 080°02'  
2017-Jan-05 17:30N 29°23' W 094°53'  

Dump ship's entire track history